Time;durP1;ratioP1;P1;durP2;ratioP2;P2;SDS_P1;SDS_P2;PMS_P1;PMS_P2;Temp;Humidity;BMP_temperature;BMP_pressure;BME280_temperature;BME280_humidity;BME280_pressure;Samples;Min_cycle;Max_cycle;Signal;HPM_P1;HPM_P2
2021/06/08 00:00:52;;;;;;;2.53;1.60;;;;;;;13.78;83.80;101428.19;6039802;23;20011;-85
2021/06/08 00:03:18;;;;;;;2.58;1.75;;;;;;;13.73;83.66;101426.00;6038331;23;20073;-82
2021/06/08 00:05:43;;;;;;;4.70;2.60;;;;;;;13.61;83.69;101403.16;6014464;23;20016;-86
2021/06/08 00:08:09;;;;;;;2.65;1.70;;;;;;;13.76;83.99;101425.66;6016140;23;20013;-86
2021/06/08 00:10:34;;;;;;;1.83;1.55;;;;;;;13.74;84.08;101408.78;6015154;23;20015;-83
2021/06/08 00:13:00;;;;;;;8.32;2.10;;;;;;;13.73;83.81;101411.66;6014768;23;20066;-86
2021/06/08 00:15:25;;;;;;;3.95;1.63;;;;;;;13.72;84.20;101415.41;6064477;23;20489;-84
2021/06/08 00:17:51;;;;;;;2.40;1.63;;;;;;;13.67;84.38;101405.13;6014541;23;20007;-82
2021/06/08 00:20:16;;;;;;;3.40;1.70;;;;;;;13.72;84.58;101404.59;6039193;23;20076;-86
2021/06/08 00:22:42;;;;;;;3.00;1.50;;;;;;;13.56;84.45;101375.81;6040859;23;20069;-85
2021/06/08 00:25:08;;;;;;;1.77;1.38;;;;;;;13.77;84.15;101407.59;6041510;23;20066;-83
2021/06/08 00:27:33;;;;;;;3.17;1.50;;;;;;;13.73;84.51;101395.44;6016917;23;20074;-83
2021/06/08 00:29:59;;;;;;;3.38;1.50;;;;;;;13.72;84.41;101401.88;6017663;23;19999;-85
2021/06/08 00:32:24;;;;;;;2.88;1.40;;;;;;;13.74;84.46;101394.44;6039155;23;20003;-85
2021/06/08 00:34:50;;;;;;;3.42;1.50;;;;;;;13.70;84.56;101385.00;6017581;23;20417;-84
2021/06/08 00:37:15;;;;;;;3.40;1.48;;;;;;;13.74;84.69;101387.16;6016757;23;20013;-84
2021/06/08 00:39:40;;;;;;;4.00;1.52;;;;;;;13.72;84.86;101382.97;6013602;23;20007;-85
2021/06/08 00:42:07;;;;;;;2.85;1.58;;;;;;;13.66;84.74;101384.53;6039524;23;20085;-83
2021/06/08 00:44:32;;;;;;;2.03;1.30;;;;;;;13.61;85.19;101360.75;6040119;23;20003;-84
2021/06/08 00:46:57;;;;;;;1.80;1.30;;;;;;;13.73;84.53;101373.81;6014667;23;20015;-85
2021/06/08 00:49:23;;;;;;;2.80;1.45;;;;;;;13.71;84.95;101384.84;6014908;23;20332;-85
2021/06/08 00:51:49;;;;;;;2.20;1.27;;;;;;;13.79;84.77;101394.75;6015256;23;20011;-83
2021/06/08 00:54:14;;;;;;;2.70;1.30;;;;;;;13.77;84.86;101383.25;6014797;23;20003;-83
2021/06/08 00:56:42;;;;;;;2.20;1.55;;;;;;;13.46;84.73;101340.09;6039356;23;20074;-82
2021/06/08 00:59:08;;;;;;;1.88;1.40;;;;;;;13.72;84.87;101391.91;6014684;23;20772;-83
2021/06/08 01:01:35;;;;;;;1.95;1.42;;;;;;;13.73;85.19;101392.75;6018015;23;20014;-84
2021/06/08 01:04:05;;;;;;;1.92;1.30;;;;;;;13.71;85.02;101387.53;6015132;23;20471;-84
2021/06/08 01:06:35;;;;;;;1.88;1.20;;;;;;;13.71;84.81;101381.28;6015353;23;20166;-83
2021/06/08 01:09:02;;;;;;;2.63;1.30;;;;;;;13.69;84.98;101384.16;6036803;23;20011;-84
2021/06/08 01:11:27;;;;;;;2.40;1.20;;;;;;;13.69;85.21;101381.47;6015565;23;20037;-83
2021/06/08 01:13:53;;;;;;;2.63;1.30;;;;;;;13.68;85.02;101387.03;6038047;23;19999;-83
2021/06/08 01:16:18;;;;;;;1.92;1.52;;;;;;;13.62;85.44;101373.22;6039329;23;20058;-84
2021/06/08 01:18:44;;;;;;;3.20;1.48;;;;;;;13.49;85.47;101339.72;6015420;23;20002;-82
2021/06/08 01:21:11;;;;;;;1.88;1.30;;;;;;;13.64;85.19;101371.19;6043164;23;20711;-86
2021/06/08 01:23:38;;;;;;;2.85;1.20;;;;;;;13.71;85.49;101381.28;6040529;23;19999;-83
2021/06/08 01:26:05;;;;;;;2.03;1.27;;;;;;;13.68;85.33;101376.22;6014922;23;20437;-84
2021/06/08 01:28:32;;;;;;;1.88;1.40;;;;;;;13.68;85.51;101381.63;6038464;23;20011;-83
2021/06/08 01:30:58;;;;;;;3.05;1.65;;;;;;;13.70;85.59;101374.19;6016002;23;20003;-84
2021/06/08 01:33:25;;;;;;;2.25;1.50;;;;;;;13.69;85.46;101373.34;6017202;23;20011;-86
2021/06/08 01:35:52;;;;;;;2.65;1.50;;;;;;;13.74;85.87;101373.66;6016828;23;20086;-83
2021/06/08 01:38:18;;;;;;;2.30;1.60;;;;;;;13.71;85.85;101359.66;6040364;23;20010;-85
2021/06/08 01:40:47;;;;;;;2.28;1.60;;;;;;;13.72;85.60;101358.63;6018923;23;20085;-85
2021/06/08 01:43:16;;;;;;;2.72;1.63;;;;;;;13.75;85.58;101359.09;6017009;23;20015;-85
2021/06/08 01:45:43;;;;;;;2.08;1.40;;;;;;;13.75;85.46;101369.09;6017912;23;20057;-84
2021/06/08 01:48:08;;;;;;;1.70;1.38;;;;;;;13.74;85.41;101365.53;6016473;23;20738;-84
2021/06/08 01:50:35;;;;;;;1.85;1.50;;;;;;;13.73;85.40;101376.53;6017508;23;20011;-85
2021/06/08 01:53:13;;;;;;;2.63;1.60;;;;;;;13.78;85.55;101385.75;6018605;23;20018;-84
2021/06/08 01:55:44;;;;;;;3.05;1.90;;;;;;;13.80;85.45;101382.91;6018020;23;20094;-84
2021/06/08 01:58:41;;;;;;;2.60;1.60;;;;;;;13.80;85.83;101386.44;6042125;23;20110;-84
2021/06/08 02:01:34;;;;;;;3.47;1.75;;;;;;;13.75;85.97;101378.03;5945094;23;20907;-85
2021/06/08 02:04:07;;;;;;;2.42;1.88;;;;;;;13.76;85.65;101368.91;6041192;23;20006;-85
2021/06/08 02:06:54;;;;;;;3.30;1.83;;;;;;;13.79;85.66;101384.75;6018252;23;20007;-83
2021/06/08 02:09:36;;;;;;;3.15;1.50;;;;;;;13.78;86.05;101382.22;6040446;23;20940;-84
2021/06/08 02:12:05;;;;;;;2.58;1.83;;;;;;;13.77;85.85;101375.16;6042492;23;20002;-82
2021/06/08 02:14:39;;;;;;;2.50;1.70;;;;;;;13.82;85.86;101386.25;6017448;23;20013;-82
2021/06/08 02:17:13;;;;;;;2.92;1.55;;;;;;;13.81;86.04;101381.84;6066210;23;20007;-85
2021/06/08 02:19:39;;;;;;;2.63;1.65;;;;;;;13.79;86.09;101379.34;6019916;23;20085;-86
2021/06/08 02:22:06;;;;;;;2.67;1.90;;;;;;;13.84;85.92;101378.81;6018136;23;20365;-82
2021/06/08 02:24:32;;;;;;;2.70;1.60;;;;;;;13.79;85.75;101370.41;6015339;23;20130;-83
2021/06/08 02:27:04;;;;;;;2.65;1.90;;;;;;;13.73;86.16;101358.44;6039817;23;20394;-84
2021/06/08 02:29:30;;;;;;;3.47;1.67;;;;;;;13.83;86.08;101371.72;6015472;23;20343;-83
2021/06/08 02:31:56;;;;;;;2.83;1.77;;;;;;;13.85;85.83;101380.50;6039492;23;20017;-83
2021/06/08 02:34:22;;;;;;;3.10;2.00;;;;;;;13.82;85.73;101370.03;6016602;23;20113;-83
2021/06/08 02:36:48;;;;;;;3.03;2.00;;;;;;;13.89;85.75;101383.66;6016245;23;20015;-83
2021/06/08 02:39:14;;;;;;;2.70;2.00;;;;;;;13.89;85.48;101376.38;6015082;23;20027;-85
2021/06/08 02:41:41;;;;;;;3.45;1.77;;;;;;;13.88;86.06;101372.00;6016221;23;20577;-85
2021/06/08 02:44:08;;;;;;;2.60;1.65;;;;;;;13.86;85.74;101376.75;6017528;23;20333;-85
2021/06/08 02:46:33;;;;;;;3.30;2.15;;;;;;;13.85;85.90;101367.81;6019495;23;20010;-82
2021/06/08 02:48:59;;;;;;;3.25;1.90;;;;;;;13.80;85.93;101351.28;6014962;23;20006;-82
2021/06/08 02:51:25;;;;;;;3.03;2.03;;;;;;;13.87;85.89;101375.75;6015497;23;20006;-85
2021/06/08 02:53:53;;;;;;;2.35;1.80;;;;;;;13.86;86.20;101376.75;6014075;23;20014;-86
2021/06/08 02:56:18;;;;;;;3.90;2.15;;;;;;;13.87;86.04;101369.50;6015531;23;20049;-84
2021/06/08 02:58:45;;;;;;;3.13;1.60;;;;;;;13.83;85.99;101377.13;6015790;23;20385;-84
2021/06/08 03:01:15;;;;;;;2.95;2.30;;;;;;;13.83;86.36;101377.94;6038394;23;20015;-82
2021/06/08 03:03:42;;;;;;;3.15;2.20;;;;;;;13.62;86.42;101346.19;6041017;23;20348;-84
2021/06/08 03:06:14;;;;;;;3.17;1.60;;;;;;;13.76;86.11;101363.50;6015698;23;20090;-84
2021/06/08 03:08:57;;;;;;;3.78;1.98;;;;;;;13.79;86.45;101370.41;6036973;23;20007;-84
2021/06/08 03:11:35;;;;;;;3.50;2.10;;;;;;;13.78;86.44;101377.66;6038322;23;20432;-83
2021/06/08 03:14:01;;;;;;;2.40;1.92;;;;;;;13.68;86.69;101360.88;6037797;23;20082;-84
2021/06/08 03:16:30;;;;;;;2.85;1.83;;;;;;;13.74;86.55;101354.72;6013799;23;20007;-85
2021/06/08 03:18:58;;;;;;;5.10;2.30;;;;;;;13.80;86.46;101370.22;6036598;23;20477;-84
2021/06/08 03:21:32;;;;;;;3.20;2.00;;;;;;;13.81;86.80;101368.34;6013318;23;20003;-85
2021/06/08 03:24:00;;;;;;;2.72;2.13;;;;;;;13.80;86.42;101369.38;6037307;23;20062;-84
2021/06/08 03:26:26;;;;;;;3.95;2.20;;;;;;;13.70;86.56;101353.41;6036816;23;20007;-85
2021/06/08 03:28:53;;;;;;;3.95;1.90;;;;;;;13.73;86.54;101360.31;6035862;23;20069;-84
2021/06/08 03:31:19;;;;;;;4.05;2.55;;;;;;;13.73;86.96;101360.31;6036711;23;20010;-84
2021/06/08 03:33:46;;;;;;;2.42;1.90;;;;;;;13.50;86.75;101328.75;6013111;23;20007;-85
2021/06/08 03:36:13;;;;;;;3.58;1.95;;;;;;;13.68;86.98;101354.59;6036615;23;20006;-84
2021/06/08 03:38:40;;;;;;;2.47;1.73;;;;;;;13.68;87.07;101362.72;6035740;23;20011;-85
2021/06/08 03:41:05;;;;;;;2.80;1.88;;;;;;;13.67;87.01;101358.34;6037018;23;20433;-85
2021/06/08 03:43:31;;;;;;;3.95;2.15;;;;;;;13.62;87.07;101350.78;6012865;23;20054;-84
2021/06/08 03:45:57;;;;;;;4.53;2.13;;;;;;;13.59;87.09;101351.97;6036934;23;20007;-83
2021/06/08 03:48:23;;;;;;;3.97;1.83;;;;;;;13.57;87.06;101359.41;6014387;23;20007;-84
2021/06/08 03:50:50;;;;;;;3.47;2.47;;;;;;;13.62;87.03;101359.72;6038922;23;20006;-82
2021/06/08 03:53:15;;;;;;;4.60;2.50;;;;;;;13.50;87.33;101336.88;6015051;23;20015;-85
2021/06/08 03:55:41;;;;;;;2.95;2.13;;;;;;;13.59;87.29;101354.69;6014483;23;20009;-83
2021/06/08 03:58:12;;;;;;;3.45;2.17;;;;;;;13.61;87.05;101360.75;6038295;23;20126;-86
2021/06/08 04:00:39;;;;;;;3.22;1.98;;;;;;;13.63;87.10;101364.13;6015884;23;20003;-84
2021/06/08 04:03:05;;;;;;;3.40;2.30;;;;;;;13.61;87.21;101352.63;6015708;23;20456;-83
2021/06/08 04:05:31;;;;;;;3.67;2.10;;;;;;;13.56;87.22;101340.69;6014487;23;20090;-85
2021/06/08 04:07:56;;;;;;;5.30;2.45;;;;;;;13.68;87.24;101362.72;6014192;23;20085;-83
2021/06/08 04:10:22;;;;;;;5.80;2.75;;;;;;;13.68;87.15;101349.19;6015423;23;20042;-85
2021/06/08 04:12:49;;;;;;;6.00;2.28;;;;;;;13.71;87.02;101363.22;6015169;23;20010;-82
2021/06/08 04:15:16;;;;;;;5.25;2.65;;;;;;;13.65;87.10;101345.00;6041934;23;20329;-83
2021/06/08 04:17:41;;;;;;;3.25;2.42;;;;;;;13.70;86.88;101353.41;6013964;23;20029;-83
2021/06/08 04:20:09;;;;;;;4.47;2.80;;;;;;;13.72;86.94;101353.22;6015127;23;20042;-84
2021/06/08 04:22:39;;;;;;;8.02;3.20;;;;;;;13.72;86.66;101345.13;6014979;23;20018;-82
2021/06/08 04:25:07;;;;;;;6.30;2.95;;;;;;;13.68;86.87;101352.78;6039312;23;20039;-84
2021/06/08 04:27:34;;;;;;;4.20;2.67;;;;;;;13.73;86.81;101353.03;6037928;23;20081;-81
2021/06/08 04:30:00;;;;;;;4.63;2.47;;;;;;;13.72;86.83;101353.22;6039903;23;20595;-85
2021/06/08 04:32:25;;;;;;;4.93;2.53;;;;;;;13.69;86.82;101346.31;6040937;23;20768;-84
2021/06/08 04:34:52;;;;;;;4.55;2.95;;;;;;;13.70;86.77;101347.16;6015931;23;20038;-84
2021/06/08 04:37:18;;;;;;;6.30;2.50;;;;;;;13.67;86.50;101331.31;6015139;23;20443;-84
2021/06/08 04:39:43;;;;;;;7.18;2.80;;;;;;;13.74;86.59;101352.03;6015028;23;20007;-84
2021/06/08 04:42:10;;;;;;;4.57;2.67;;;;;;;13.75;86.54;101350.16;6039158;23;20011;-84
2021/06/08 04:44:35;;;;;;;6.82;3.33;;;;;;;13.68;86.69;101333.84;6039160;23;20013;-84
2021/06/08 04:47:01;;;;;;;6.68;2.90;;;;;;;13.77;86.49;101348.97;6016639;23;20029;-84
2021/06/08 04:49:27;;;;;;;6.95;3.55;;;;;;;13.82;86.30;101345.72;6014100;23;20006;-83
2021/06/08 04:51:52;;;;;;;5.88;3.35;;;;;;;13.78;86.38;101339.81;6015584;23;20082;-85
2021/06/08 04:54:24;;;;;;;8.75;3.33;;;;;;;13.77;86.13;101340.84;6018253;23;20054;-85
2021/06/08 04:56:50;;;;;;;5.28;3.03;;;;;;;13.85;86.41;101362.41;6039182;23;20395;-84
2021/06/08 04:59:22;;;;;;;6.60;2.92;;;;;;;13.85;86.21;101353.47;6013512;23;20038;-83
2021/06/08 05:01:48;;;;;;;7.75;3.47;;;;;;;13.81;86.23;101342.19;6014678;23;20013;-84
2021/06/08 05:04:14;;;;;;;8.25;3.67;;;;;;;13.86;86.09;101347.00;6038034;23;20014;-84
2021/06/08 05:06:45;;;;;;;7.57;3.42;;;;;;;13.93;86.42;101350.69;6013942;23;20389;-84
2021/06/08 05:09:14;;;;;;;5.60;4.13;;;;;;;13.90;85.83;101342.94;6013826;23;20015;-85
2021/06/08 05:11:50;;;;;;;7.50;3.97;;;;;;;13.90;85.91;101351.03;6017296;23;20060;-85
2021/06/08 05:14:16;;;;;;;6.38;3.60;;;;;;;13.94;86.22;101365.03;6015264;23;20121;-83
2021/06/08 05:16:46;;;;;;;5.22;3.33;;;;;;;13.95;85.75;101366.72;6014032;23;20030;-84
2021/06/08 05:19:12;;;;;;;4.93;3.25;;;;;;;13.92;85.81;101354.41;6036852;23;20021;-83
2021/06/08 05:21:38;;;;;;;4.32;2.97;;;;;;;13.96;86.07;101346.75;6038564;23;20058;-83
2021/06/08 05:24:04;;;;;;;6.72;3.17;;;;;;;13.94;85.67;101349.63;6038201;23;20015;-84
2021/06/08 05:26:30;;;;;;;6.78;3.22;;;;;;;13.98;85.55;101361.78;6015405;23;20011;-84
2021/06/08 05:28:55;;;;;;;5.07;2.90;;;;;;;14.00;85.35;101346.22;6040123;23;20034;-84
2021/06/08 05:31:21;;;;;;;4.95;2.97;;;;;;;14.07;85.37;101352.56;6016910;23;20021;-84
2021/06/08 05:33:47;;;;;;;6.30;3.13;;;;;;;14.12;85.15;101345.75;6038634;23;20010;-84
2021/06/08 05:36:13;;;;;;;8.25;3.35;;;;;;;14.13;85.06;101353.69;6017062;23;20014;-84
2021/06/08 05:38:40;;;;;;;6.22;2.65;;;;;;;14.10;85.06;101337.81;6014450;23;20781;-84
2021/06/08 05:41:11;;;;;;;5.15;2.45;;;;;;;14.14;85.05;101343.72;6015789;23;20094;-84
2021/06/08 05:43:41;;;;;;;4.25;2.10;;;;;;;14.17;84.91;101340.63;6037807;23;20007;-83
2021/06/08 05:46:07;;;;;;;4.57;2.65;;;;;;;14.21;84.67;101341.94;6011536;23;20002;-83
2021/06/08 05:48:33;;;;;;;3.80;2.45;;;;;;;14.24;84.91;101347.00;6013070;23;20116;-85
2021/06/08 05:51:00;;;;;;;3.50;2.67;;;;;;;14.26;84.68;101350.34;6015128;23;20101;-85
2021/06/08 05:53:25;;;;;;;3.42;2.15;;;;;;;14.32;84.42;101351.47;6014826;23;20062;-84
2021/06/08 05:55:54;;;;;;;5.82;2.20;;;;;;;14.37;84.29;101355.31;6013034;23;20042;-85
2021/06/08 05:58:27;;;;;;;3.28;2.10;;;;;;;14.37;84.32;101346.31;6013592;23;20090;-84
2021/06/08 06:00:54;;;;;;;5.40;2.88;;;;;;;14.31;84.32;101331.69;6013229;23;20007;-84
2021/06/08 06:03:20;;;;;;;4.07;2.20;;;;;;;14.43;84.42;101359.97;6039860;23;20003;-84
2021/06/08 06:05:47;;;;;;;5.53;2.03;;;;;;;14.44;84.47;101353.50;6013616;23;20003;-83
2021/06/08 06:08:12;;;;;;;4.78;2.30;;;;;;;14.43;84.16;101343.72;6012866;23;20010;-82
2021/06/08 06:10:38;;;;;;;2.63;1.90;;;;;;;14.43;84.15;101341.03;6013787;23;20006;-83
2021/06/08 06:13:04;;;;;;;2.97;2.10;;;;;;;14.51;84.28;101350.91;6014141;23;20003;-82
2021/06/08 06:15:30;;;;;;;6.00;2.30;;;;;;;14.58;84.00;101340.19;6014438;23;20013;-84
2021/06/08 06:17:56;;;;;;;4.00;2.00;;;;;;;14.62;83.89;101350.47;6012877;23;20003;-85
2021/06/08 06:20:22;;;;;;;4.13;1.90;;;;;;;14.63;84.02;101357.56;6038614;23;20003;-85
2021/06/08 06:22:50;;;;;;;2.97;2.00;;;;;;;14.67;83.87;101349.91;6039472;23;20086;-83
2021/06/08 06:25:15;;;;;;;2.08;1.83;;;;;;;14.68;84.10;101352.41;6015384;23;20098;-84
2021/06/08 06:27:42;;;;;;;3.92;1.98;;;;;;;14.66;84.06;101343.66;6035941;23;20849;-83
2021/06/08 06:30:10;;;;;;;4.05;2.10;;;;;;;14.70;84.14;101354.94;6014274;23;20401;-83
2021/06/08 06:32:36;;;;;;;5.45;2.53;;;;;;;14.66;84.07;101342.78;6013020;23;20010;-83
2021/06/08 06:35:06;;;;;;;2.22;1.63;;;;;;;14.67;83.93;101345.31;6036842;23;20472;-83
2021/06/08 06:37:32;;;;;;;2.53;1.67;;;;;;;14.71;83.99;101343.94;6037998;23;20043;-82
2021/06/08 06:39:59;;;;;;;2.63;1.70;;;;;;;14.78;83.61;101352.13;6014342;23;20062;-83
2021/06/08 06:42:30;;;;;;;1.92;1.48;;;;;;;14.78;83.78;101346.72;6011968;23;20010;-84
2021/06/08 06:44:56;;;;;;;2.40;1.75;;;;;;;14.85;83.56;101368.47;6012521;23;20003;-84
2021/06/08 06:47:23;;;;;;;4.13;1.80;;;;;;;14.90;83.51;101361.44;6012288;23;20074;-83
2021/06/08 06:49:48;;;;;;;3.05;1.60;;;;;;;14.93;83.63;101355.66;6010554;23;20356;-82
2021/06/08 06:52:14;;;;;;;2.70;1.33;;;;;;;15.00;83.08;101365.72;6013551;23;20440;-85
2021/06/08 06:54:40;;;;;;;3.28;1.48;;;;;;;14.90;83.05;101331.66;6012600;23;20003;-84
2021/06/08 06:57:06;;;;;;;2.17;1.65;;;;;;;15.13;83.34;101347.75;6036162;23;20007;-84
2021/06/08 06:59:32;;;;;;;2.47;1.80;;;;;;;15.23;82.61;101336.59;6035901;23;20322;-86
2021/06/08 07:01:58;;;;;;;2.97;1.90;;;;;;;15.34;82.09;101336.09;6013124;23;20006;-85
2021/06/08 07:06:59;;;;;;;3.10;1.60;;;;;;;15.74;81.08;101347.31;6004379;23;20015;-77
2021/06/08 07:09:25;;;;;;;1.70;1.45;;;;;;;15.94;79.93;101357.53;5978868;23;20003;-84
2021/06/08 07:11:55;;;;;;;1.77;1.48;;;;;;;15.91;79.09;101347.06;5980519;23;20011;-83
2021/06/08 07:14:21;;;;;;;1.90;1.58;;;;;;;15.86;79.17;101346.81;5979515;23;20003;-82
2021/06/08 07:16:47;;;;;;;2.28;1.50;;;;;;;15.73;79.78;101345.66;5980274;23;20030;-83
2021/06/08 07:19:16;;;;;;;2.10;1.48;;;;;;;15.69;80.07;101349.81;5978132;23;20454;-82
2021/06/08 07:21:43;;;;;;;2.95;1.70;;;;;;;15.68;80.30;101353.50;5956160;23;20075;-83
2021/06/08 07:24:10;;;;;;;2.20;1.70;;;;;;;15.59;80.40;101347.38;5958640;23;20004;-83
2021/06/08 07:26:37;;;;;;;3.03;1.60;;;;;;;15.53;80.61;101361.72;5982482;23;20019;-81
2021/06/08 07:29:04;;;;;;;2.53;1.90;;;;;;;15.49;80.75;101356.88;5959510;23;20011;-81
2021/06/08 07:31:33;;;;;;;3.15;1.50;;;;;;;15.52;81.23;101365.44;5981618;23;20014;-83
2021/06/08 07:34:04;;;;;;;2.08;1.42;;;;;;;15.35;81.06;101331.53;6006588;23;20011;-83
2021/06/08 07:36:44;;;;;;;2.63;1.90;;;;;;;15.45;80.96;101352.88;5957942;23;20034;-82
2021/06/08 07:39:28;;;;;;;2.85;1.65;;;;;;;15.43;81.38;101353.06;5958142;23;20007;-85
2021/06/08 07:42:04;;;;;;;2.03;1.40;;;;;;;15.48;81.39;101358.75;5960613;23;20035;-83
2021/06/08 07:44:33;;;;;;;2.65;1.30;;;;;;;15.47;81.43;101350.81;5958309;23;20387;-84
2021/06/08 07:47:02;;;;;;;4.60;1.65;;;;;;;15.53;81.22;101355.44;5957642;23;20007;-83
2021/06/08 07:49:29;;;;;;;1.55;1.25;;;;;;;15.61;81.28;101356.19;5957700;23;20098;-81
2021/06/08 07:51:55;;;;;;;3.55;1.55;;;;;;;15.60;80.77;101357.19;5958657;23;20019;-83
2021/06/08 07:54:37;;;;;;;3.05;1.40;;;;;;;15.59;80.48;101350.09;5940357;23;20019;-84
2021/06/08 07:57:02;;;;;;;2.20;1.30;;;;;;;15.64;80.21;101357.66;5957762;23;20027;-82
2021/06/08 07:59:28;;;;;;;2.78;1.48;;;;;;;15.61;80.10;101349.88;5980566;23;20025;-84
2021/06/08 08:01:53;;;;;;;2.20;1.40;;;;;;;15.72;80.12;101357.56;5958405;23;20015;-84
2021/06/08 08:04:20;;;;;;;2.17;1.27;;;;;;;15.77;79.96;101365.94;5958928;23;20063;-83
2021/06/08 08:06:54;;;;;;;1.65;1.30;;;;;;;15.76;79.74;101349.84;5955853;23;20090;-83
2021/06/08 08:09:20;;;;;;;2.65;1.50;;;;;;;15.73;79.68;101339.41;5982687;23;20397;-84
2021/06/08 08:11:47;;;;;;;2.22;1.30;;;;;;;15.91;79.82;101352.50;5958943;23;20031;-83
2021/06/08 08:14:17;;;;;;;2.83;1.30;;;;;;;15.89;79.66;101347.25;5957291;23;20012;-82
2021/06/08 08:16:45;;;;;;;1.00;0.90;;;;;;;15.92;79.23;101346.84;5958453;23;20094;-83
2021/06/08 08:19:11;;;;;;;2.85;1.20;;;;;;;15.88;79.42;101345.59;5957434;23;20095;-83
2021/06/08 08:21:37;;;;;;;1.58;0.90;;;;;;;15.80;79.52;101332.19;5957803;23;20028;-84
2021/06/08 08:24:02;;;;;;;2.08;1.10;;;;;;;15.89;79.37;101349.97;5958288;23;20146;-83
2021/06/08 08:26:29;;;;;;;10.20;1.23;;;;;;;15.91;79.58;101353.31;5980776;23;20012;-84
2021/06/08 08:28:59;;;;;;;1.25;0.80;;;;;;;15.90;79.34;101350.78;5956667;23;20004;-83
2021/06/08 08:31:27;;;;;;;0.95;0.88;;;;;;;15.99;79.34;101355.06;5959234;23;20341;-83
2021/06/08 08:33:53;;;;;;;0.90;0.70;;;;;;;15.98;79.26;101356.06;5981831;23;20135;-82
2021/06/08 08:36:19;;;;;;;2.05;1.00;;;;;;;16.05;78.81;101352.38;5957594;23;20091;-84
2021/06/08 08:38:44;;;;;;;1.10;0.93;;;;;;;16.12;78.50;101363.28;5957136;23;20087;-83
2021/06/08 08:41:10;;;;;;;4.68;1.10;;;;;;;16.16;78.27;101350.16;5958097;23;20086;-82
2021/06/08 08:43:38;;;;;;;1.40;0.98;;;;;;;16.19;78.28;101361.44;5957076;23;20505;-83
2021/06/08 08:46:04;;;;;;;1.35;0.90;;;;;;;16.21;78.28;101364.81;5958362;23;20462;-82
2021/06/08 08:48:31;;;;;;;1.30;0.90;;;;;;;16.22;78.34;101352.06;5957200;23;20008;-83
2021/06/08 08:50:56;;;;;;;1.70;1.08;;;;;;;16.25;78.37;101359.84;5957608;23;20014;-83
2021/06/08 08:53:22;;;;;;;2.55;1.23;;;;;;;16.24;78.31;101358.97;5957984;23;20012;-84
2021/06/08 08:55:48;;;;;;;1.38;1.00;;;;;;;16.27;78.63;101352.31;5958490;23;20004;-84
2021/06/08 08:58:15;;;;;;;1.42;1.00;;;;;;;16.32;78.71;101349.84;5956233;23;20497;-83
2021/06/08 09:00:42;;;;;;;1.67;1.05;;;;;;;16.36;78.17;101350.31;5981104;23;20007;-84
2021/06/08 09:03:08;;;;;;;2.13;1.13;;;;;;;16.31;78.41;101363.63;5957910;23;20014;-84
2021/06/08 09:05:38;;;;;;;1.15;0.90;;;;;;;16.27;78.27;101350.47;5957067;23;20039;-83
2021/06/08 09:08:05;;;;;;;2.08;1.00;;;;;;;16.20;78.34;101341.44;5980275;23;20056;-83
2021/06/08 09:10:32;;;;;;;1.85;0.93;;;;;;;16.26;78.42;101356.06;5957775;23;20514;-83
2021/06/08 09:12:57;;;;;;;1.85;0.93;;;;;;;16.31;78.07;101348.19;5957001;23;20039;-84
2021/06/08 09:15:23;;;;;;;1.73;1.00;;;;;;;16.30;78.08;101337.50;5957791;23;20379;-83
2021/06/08 09:17:55;;;;;;;1.75;1.30;;;;;;;16.33;78.35;101342.56;5956983;23;20008;-83
2021/06/08 09:20:21;;;;;;;1.10;0.95;;;;;;;16.41;78.40;101356.81;5956983;23;20012;-83
2021/06/08 09:22:54;;;;;;;2.45;0.98;;;;;;;16.36;78.34;101351.13;5957859;23;20156;-84
2021/06/08 09:25:38;;;;;;;0.90;0.80;;;;;;;16.35;78.28;101356.75;5985225;23;20036;-84
2021/06/08 09:28:40;;;;;;;1.75;1.00;;;;;;;16.35;78.42;101341.28;5981595;23;20064;-84
2021/06/08 09:31:23;;;;;;;1.50;0.90;;;;;;;16.40;78.37;101346.13;5971621;23;20319;-84
2021/06/08 09:33:52;;;;;;;1.23;0.98;;;;;;;16.36;77.93;101345.72;5959889;23;20339;-84
2021/06/08 09:36:22;;;;;;;1.13;0.90;;;;;;;16.31;77.83;101336.50;5958877;23;20087;-83
2021/06/08 09:38:50;;;;;;;1.20;1.10;;;;;;;16.37;78.06;101335.69;5961010;23;20437;-84
2021/06/08 09:41:33;;;;;;;1.60;1.10;;;;;;;16.39;78.30;101333.63;5962512;23;20007;-83
2021/06/08 09:43:58;;;;;;;1.98;1.10;;;;;;;16.38;78.19;101338.22;5989287;23;20003;-84
2021/06/08 09:46:29;;;;;;;1.65;0.98;;;;;;;16.34;78.54;101328.78;5987410;23;20063;-84
2021/06/08 09:48:56;;;;;;;2.03;1.20;;;;;;;16.38;78.38;101327.34;5986758;23;20377;-83
2021/06/08 09:51:23;;;;;;;1.42;1.10;;;;;;;16.39;78.33;101323.59;5985580;23;20402;-84
2021/06/08 09:53:49;;;;;;;2.22;1.13;;;;;;;16.43;78.31;101326.72;5985726;23;20031;-84
2021/06/08 09:56:15;;;;;;;4.68;1.45;;;;;;;16.33;78.36;101316.25;5963278;23;20404;-83
2021/06/08 09:58:51;;;;;;;1.65;1.05;;;;;;;16.33;78.59;101323.56;5960703;23;20011;-83
2021/06/08 10:01:26;;;;;;;1.50;1.30;;;;;;;16.37;78.46;101317.50;5987198;23;20086;-84
2021/06/08 10:04:03;;;;;;;1.50;1.10;;;;;;;16.47;78.64;101326.13;5984876;23;20011;-83
2021/06/08 10:06:40;;;;;;;3.30;1.25;;;;;;;16.56;78.37;101317.81;5984764;23;20038;-84
2021/06/08 10:09:12;;;;;;;2.38;1.33;;;;;;;16.67;78.19;101309.94;5961828;23;20042;-83
2021/06/08 10:11:39;;;;;;;2.05;1.30;;;;;;;16.74;78.20;101317.28;5961073;23;20331;-82
2021/06/08 10:14:19;;;;;;;2.33;1.30;;;;;;;16.82;78.18;101317.13;6007825;23;20018;-84
2021/06/08 10:16:46;;;;;;;1.80;1.20;;;;;;;16.87;77.80;101320.06;5959852;23;20015;-83
2021/06/08 10:19:23;;;;;;;2.15;1.20;;;;;;;16.93;77.35;101319.25;5982153;23;20003;-84
2021/06/08 10:21:49;;;;;;;1.25;1.00;;;;;;;17.01;77.27;101318.22;5960513;23;20044;-83
2021/06/08 10:24:20;;;;;;;1.38;0.93;;;;;;;17.04;77.20;101323.25;5982000;23;20060;-83
2021/06/08 10:26:52;;;;;;;2.50;1.63;;;;;;;17.12;76.81;101323.06;5982412;23;20015;-85
2021/06/08 10:29:23;;;;;;;2.00;1.13;;;;;;;17.23;76.93;101321.66;5959632;23;20083;-83
2021/06/08 10:31:49;;;;;;;4.30;2.60;;;;;;;17.22;76.64;101307.19;5982097;23;20018;-83
2021/06/08 10:34:15;;;;;;;1.67;1.10;;;;;;;17.35;76.07;101320.81;5981242;23;20338;-84
2021/06/08 10:36:42;;;;;;;7.95;3.30;;;;;;;17.45;76.04;101309.53;5981890;23;20003;-83
2021/06/08 10:39:11;;;;;;;7.25;4.10;;;;;;;17.59;75.45;101308.50;5957763;23;20011;-84
2021/06/08 10:41:39;;;;;;;1.60;1.10;;;;;;;17.69;75.08;101318.13;5957948;23;20024;-83
2021/06/08 10:44:05;;;;;;;4.05;2.60;;;;;;;17.72;75.44;101313.09;5981941;23;20010;-83
2021/06/08 10:46:44;;;;;;;1.67;1.17;;;;;;;17.82;75.01;101312.72;5957736;23;20080;-83
2021/06/08 10:49:10;;;;;;;1.75;1.20;;;;;;;17.82;75.03;101304.56;5960271;23;20008;-83
2021/06/08 10:51:36;;;;;;;2.22;1.00;;;;;;;17.78;74.82;101308.69;5958367;23;20011;-83
2021/06/08 10:54:07;;;;;;;1.40;0.50;;;;;;;17.83;73.64;101319.81;5959236;23;20087;-83
2021/06/08 10:56:36;;;;;;;0.80;0.60;;;;;;;17.76;72.87;101327.13;5958331;23;20000;-83
2021/06/08 10:59:08;;;;;;;0.80;0.60;;;;;;;17.72;72.27;101323.97;5957971;23;20039;-83
2021/06/08 11:04:04;;;;;;;0.80;0.70;;;;;;;17.71;72.31;101321.47;6008237;23;20098;-82
2021/06/08 11:06:51;;;;;;;1.00;0.50;;;;;;;17.76;72.40;101327.97;5960249;23;20016;-85
2021/06/08 11:09:22;;;;;;;0.60;0.60;;;;;;;17.80;72.38;101331.94;5982382;23;20035;-84
2021/06/08 11:11:54;;;;;;;2.13;1.45;;;;;;;17.91;72.28;101330.47;5983336;23;20717;-83
2021/06/08 11:17:08;;;;;;;1.00;0.90;;;;;;;18.13;71.54;101319.38;5994252;23;20015;-83
2021/06/08 11:19:53;;;;;;;0.60;0.60;;;;;;;18.22;70.64;101320.81;5984364;23;20460;-84
2021/06/08 11:22:31;;;;;;;1.48;0.80;;;;;;;18.18;70.33;101309.53;5986211;23;20018;-85
2021/06/08 11:24:57;;;;;;;0.90;0.70;;;;;;;18.21;70.18;101309.09;5981298;23;20015;-83
2021/06/08 11:27:55;;;;;;;2.55;1.00;;;;;;;18.37;70.19;101329.59;5958404;23;20000;-84
2021/06/08 11:30:41;;;;;;;0.60;0.60;;;;;;;18.45;69.93;101318.47;5958353;23;20011;-83
2021/06/08 11:33:25;;;;;;;0.80;0.70;;;;;;;18.49;68.83;101321.56;5981172;23;20045;-83
2021/06/08 11:35:51;;;;;;;0.60;0.60;;;;;;;18.60;68.04;101303.72;5983199;23;20062;-83
2021/06/08 11:38:22;;;;;;;1.00;0.90;;;;;;;18.70;68.27;101330.53;5981517;23;20031;-84